Airfield :
LOGIN :

Register | Disclaimer

   EN    FR    IT 

 










Legend :    VFR   Marginal VFR   IFR   Intensive IFR   Very Intensive IFR
Visi :
Ceiling :
>= 8 km
>= 3000ft
5 to 8 km
1000 to 3000 ft
1500m to 5 km
500 to 1000 ft
800 to 1500m
200 to 500 ft
< 800m
< 200 ft
Symbols :   Thunderstorms  Fog  Heavy snow  Heavy precipitations  Wind > 20 kt
SIGMETs :     Misc.  Thunderstorms  Icing  Turbulence  Mountain Waves  Volcanic Ashes






- Airport Elevation : 989 ft
- IATA code : TRN


LIMF - Torino Caselle

CURRENT METAR :
  • 161820Z VRB02KT 5000 BR NSC 10/04 Q1028

EXPIRED METARs :
  • 161750Z 02002KT 5000 BR NSC 09/04 Q1028
  • 161720Z 04003KT 5000 BR NSC 10/04 Q1027
  • 161650Z 08003KT 6000 NSC 10/03 Q1027
  • 161620Z 07002KT 5000 BR NSC 11/03 Q1027
  • 161550Z 06002KT 5000 BR NSC 11/03 Q1027

TAF TAF LIMF
Valid from the 16 at 18:00 until the 17 at 18:00 UTC


161700Z 1618/1718 VRB05KT 6000 SCT050
PROB30
TEMPO 1702/1706 1500 BCFG



MET'MAP, your aeronautical weather chart ! - Copyright ORBIFLY December 2007 - Disclaimer

ORBIFLY MET'MAP TEAM :

Programming & Development : Alexandra Zaïnal
Concept & original design : Baudouin d'Aumeries
Assistance for programming : Marc-Olivier Méhu
Technical & hardware support : Manuel Goepfert

Contact : metmap@orbifly.com




SOURCES & CREDITS :

   NOAA